地図

経路データ

SID SEASON NUMBER BASIN SUBBASIN NAME ISO_TIME NATURE LAT LON WMO_WIND WMO_PRES WMO_AGENCY TRACK_TYPE DIST2LAND LANDFALL IFLAG USA_AGENCY USA_ATCF_ID USA_LAT USA_LON USA_RECORD USA_STATUS USA_WIND USA_PRES USA_SSHS USA_R34_NE USA_R34_SE USA_R34_SW USA_R34_NW USA_R50_NE USA_R50_SE USA_R50_SW USA_R50_NW USA_R64_NE USA_R64_SE USA_R64_SW USA_R64_NW USA_POCI USA_ROCI USA_RMW USA_EYE TOKYO_LAT TOKYO_LON TOKYO_GRADE TOKYO_WIND TOKYO_PRES TOKYO_R50_DIR TOKYO_R50_LONG TOKYO_R50_SHORT TOKYO_R30_DIR TOKYO_R30_LONG TOKYO_R30_SHORT TOKYO_LAND CMA_LAT CMA_LON CMA_CAT CMA_WIND CMA_PRES HKO_LAT HKO_LON HKO_CAT HKO_WIND HKO_PRES NEWDELHI_LAT NEWDELHI_LON NEWDELHI_GRADE NEWDELHI_WIND NEWDELHI_PRES NEWDELHI_CI NEWDELHI_DP NEWDELHI_POCI REUNION_LAT REUNION_LON REUNION_TYPE REUNION_WIND REUNION_PRES REUNION_TNUM REUNION_CI REUNION_RMW REUNION_R34_NE REUNION_R34_SE REUNION_R34_SW REUNION_R34_NW REUNION_R50_NE REUNION_R50_SE REUNION_R50_SW REUNION_R50_NW REUNION_R64_NE REUNION_R64_SE REUNION_R64_SW REUNION_R64_NW BOM_LAT BOM_LON BOM_TYPE BOM_WIND BOM_PRES BOM_TNUM BOM_CI BOM_RMW BOM_R34_NE BOM_R34_SE BOM_R34_SW BOM_R34_NW BOM_R50_NE BOM_R50_SE BOM_R50_SW BOM_R50_NW BOM_R64_NE BOM_R64_SE BOM_R64_SW BOM_R64_NW BOM_ROCI BOM_POCI BOM_EYE BOM_POS_METHOD BOM_PRES_METHOD NADI_LAT NADI_LON NADI_CAT NADI_WIND NADI_PRES WELLINGTON_LAT WELLINGTON_LON WELLINGTON_WIND WELLINGTON_PRES DS824_LAT DS824_LON DS824_STAGE DS824_WIND DS824_PRES TD9636_LAT TD9636_LON TD9636_STAGE TD9636_WIND TD9636_PRES TD9635_LAT TD9635_LON TD9635_WIND TD9635_PRES TD9635_ROCI NEUMANN_LAT NEUMANN_LON NEUMANN_CLASS NEUMANN_WIND NEUMANN_PRES MLC_LAT MLC_LON MLC_CLASS MLC_WIND MLC_PRES USA_GUST BOM_GUST BOM_GUST_PER REUNION_GUST REUNION_GUST_PER USA_SEAHGT USA_SEARAD_NE USA_SEARAD_SE USA_SEARAD_SW USA_SEARAD_NW STORM_SPEED STORM_DIR
1881011S15057 1881 2 SI MM NOT_NAMED 1881-01-11 00:00:00 TS -14.6000 57.1000 main 616 594 _________O____ -1 -14.6000 57.1000 TC 3 195
1881011S15057 1881 2 SI MM NOT_NAMED 1881-01-11 03:00:00 TS -14.7625 57.0500 main 594 584 _________P____ -1 -14.7625 57.0500 TC 3 197
1881011S15057 1881 2 SI MM NOT_NAMED 1881-01-11 06:00:00 TS -14.9000 57.0000 main 584 573 _________O____ -1 -14.9000 57.0000 TC 3 202
1881011S15057 1881 2 SI MM NOT_NAMED 1881-01-11 09:00:00 TS -15.0000 56.9500 main 574 563 _________P____ -1 -15.0000 56.9500 TC 2 207
1881011S15057 1881 2 SI MM NOT_NAMED 1881-01-11 12:00:00 TS -15.1000 56.9000 main 563 551 _________O____ -1 -15.1000 56.9000 TC 3 200
1881011S15057 1881 2 SI MM NOT_NAMED 1881-01-11 15:00:00 TS -15.2500 56.8575 main 551 531 _________P____ -1 -15.2500 56.8575 TC 3 197
1881011S15057 1881 2 SI MM NOT_NAMED 1881-01-11 18:00:00 TS -15.4000 56.8000 main 531 520 _________O____ -1 -15.4000 56.8000 TC 3 210
1881011S15057 1881 2 SI MM NOT_NAMED 1881-01-11 21:00:00 TS -15.5000 56.7075 main 521 512 _________P____ -1 -15.5000 56.7075 TC 3 224
1881011S15057 1881 2 SI MM NOT_NAMED 1881-01-12 00:00:00 TS -15.6000 56.6000 main 512 501 _________O____ -1 -15.6000 56.6000 TC 3 221
1881011S15057 1881 2 SI MM NOT_NAMED 1881-01-12 03:00:00 TS -15.7350 56.4925 main 503 484 _________P____ -1 -15.7350 56.4925 TC 4 213
1881011S15057 1881 2 SI MM NOT_NAMED 1881-01-12 06:00:00 TS -15.9000 56.4000 main 484 465 _________O____ -1 -15.9000 56.4000 TC 4 203
1881011S15057 1881 2 SI MM NOT_NAMED 1881-01-12 09:00:00 TS -16.1000 56.3350 main 465 443 _________P____ -1 -16.1000 56.3350 TC 4 193
1881011S15057 1881 2 SI MM NOT_NAMED 1881-01-12 12:00:00 TS -16.3000 56.3000 main 443 432 _________O____ -1 -16.3000 56.3000 TC 4 187
1881011S15057 1881 2 SI MM NOT_NAMED 1881-01-12 15:00:00 TS -16.4575 56.3000 main 422 411 _________P____ -1 -16.4575 56.3000 TC 3 0
1881011S15057 1881 2 SI MM NOT_NAMED 1881-01-12 18:00:00 TS -16.6000 56.3000 main 411 400 _________O____ -1 -16.6000 56.3000 TC 3 189
1881011S15057 1881 2 SI MM NOT_NAMED 1881-01-12 21:00:00 TS -16.7500 56.2575 main 400 383 _________P____ -1 -16.7500 56.2575 TC 3 197
1881011S15057 1881 2 SI MM NOT_NAMED 1881-01-13 00:00:00 TS -16.9000 56.2000 main 383 372 _________O____ -1 -16.9000 56.2000 TC 3 199
1881011S15057 1881 2 SI MM NOT_NAMED 1881-01-13 03:00:00 TS -17.0500 56.1500 main 372 356 _________P____ -1 -17.0500 56.1500 TC 3 197
1881011S15057 1881 2 SI MM NOT_NAMED 1881-01-13 06:00:00 TS -17.2000 56.1000 main 356 346 _________O____ -1 -17.2000 56.1000 TC 3 197
1881011S15057 1881 2 SI MM NOT_NAMED 1881-01-13 09:00:00 TS -17.3500 56.0500 main 346 330 _________P____ -1 -17.3500 56.0500 TC 3 197
1881011S15057 1881 2 SI MM NOT_NAMED 1881-01-13 12:00:00 TS -17.5000 56.0000 main 330 321 _________O____ -1 -17.5000 56.0000 TC 3 199
1881011S15057 1881 2 SI MM NOT_NAMED 1881-01-13 15:00:00 TS -17.6425 55.9500 main 326 307 _________P____ -1 -17.6425 55.9500 TC 3 197
1881011S15057 1881 2 SI MM NOT_NAMED 1881-01-13 18:00:00 TS -17.8000 55.9000 main 307 288 _________O____ -1 -17.8000 55.9000 TC 3 195
1881011S15057 1881 2 SI MM NOT_NAMED 1881-01-13 21:00:00 TS -17.9775 55.8574 main 288 277 _________P____ -1 -17.9775 55.8574 TC 4 193
1881011S15057 1881 2 SI MM NOT_NAMED 1881-01-14 00:00:00 TS -18.2000 55.8000 main 277 260 _________O____ -1 -18.2000 55.8000 TC 5 195
1881011S15057 1881 2 SI MM NOT_NAMED 1881-01-14 03:00:00 TS -18.4925 55.7075 main 260 246 _________P____ -1 -18.4925 55.7075 TC 6 198
1881011S15057 1881 2 SI MM NOT_NAMED 1881-01-14 06:00:00 TS -18.8000 55.6000 main 246 223 _________O____ -1 -18.8000 55.6000 TC 6 200
1881011S15057 1881 2 SI MM NOT_NAMED 1881-01-14 09:00:00 TS -19.0500 55.4999 main 223 190 _________P____ -1 -19.0500 55.4999 TC 5 201
1881011S15057 1881 2 SI MM NOT_NAMED 1881-01-14 12:00:00 TS -19.3000 55.4000 main 190 156 _________O____ -1 -19.3000 55.4000 TC 6 200
1881011S15057 1881 2 SI MM NOT_NAMED 1881-01-14 15:00:00 TS -19.5850 55.2925 main 156 123 _________P____ -1 -19.5850 55.2925 TC 6 198
1881011S15057 1881 2 SI MM NOT_NAMED 1881-01-14 18:00:00 TS -19.9000 55.2000 main 123 90 _________O____ -1 -19.9000 55.2000 TC 7 192
1881011S15057 1881 2 SI MM NOT_NAMED 1881-01-14 21:00:00 TS -20.2425 55.1424 main 91 49 _________P____ -1 -20.2425 55.1424 TC 7 188
1881011S15057 1881 2 SI MM NOT_NAMED 1881-01-15 00:00:00 TS -20.6000 55.1000 main 49 23 _________O____ -1 -20.6000 55.1000 TC 7 188
1881011S15057 1881 2 SI MM NOT_NAMED 1881-01-15 03:00:00 TS -20.9500 55.0425 main 30 20 _________P____ -1 -20.9500 55.0425 TC 7 188
1881011S15057 1881 2 SI MM NOT_NAMED 1881-01-15 06:00:00 TS -21.3000 55.0000 main 30 30 _________O____ -1 -21.3000 55.0000 TC 7 183
1881011S15057 1881 2 SI MM NOT_NAMED 1881-01-15 09:00:00 TS -21.6425 54.9924 main 45 45 _________P____ -1 -21.6425 54.9924 TC 7 0
1881011S15057 1881 2 SI MM NOT_NAMED 1881-01-15 12:00:00 TS -22.0000 55.0000 main 84 84 _________O____ -1 -22.0000 55.0000 TC 8 0
1881011S15057 1881 2 SI MM NOT_NAMED 1881-01-15 15:00:00 TS -22.3925 55.0000 main 126 126 _________P____ -1 -22.3925 55.0000 TC 8 179
1881011S15057 1881 2 SI MM NOT_NAMED 1881-01-15 18:00:00 TS -22.8000 55.0000 main 168 168 _________O____ -1 -22.8000 55.0000 TC 8 181
1881011S15057 1881 2 SI MM NOT_NAMED 1881-01-15 21:00:00 TS -23.1925 54.9926 main 210 210 _________P____ -1 -23.1925 54.9926 TC 8 179
1881011S15057 1881 2 SI MM NOT_NAMED 1881-01-16 00:00:00 TS -23.6000 55.0000 main 253 253 _________O____ -1 -23.6000 55.0000 TC 9 177
1881011S15057 1881 2 SI MM NOT_NAMED 1881-01-16 03:00:00 TS -24.0500 55.0350 main 297 297 _________P____ -1 -24.0500 55.0350 TC 9 175
1881011S15057 1881 2 SI MM NOT_NAMED 1881-01-16 06:00:00 TS -24.5000 55.1000 main 350 350 _________O____ -1 -24.5000 55.1000 TC 9 171
1881011S15057 1881 2 SI MM NOT_NAMED 1881-01-16 09:00:00 TS -24.9000 55.1851 main 393 393 _________P____ -1 -24.9000 55.1851 TC 8 167
1881011S15057 1881 2 SI MM NOT_NAMED 1881-01-16 12:00:00 TS -25.3000 55.3000 main 436 436 _________O____ -1 -25.3000 55.3000 TC 9 165
1881011S15057 1881 2 SI MM NOT_NAMED 1881-01-16 15:00:00 TS -25.7500 55.4425 main 492 491 _________P____ -1 -25.7500 55.4425 TC 9 163
1881011S15057 1881 2 SI MM NOT_NAMED 1881-01-16 18:00:00 TS -26.2000 55.6000 main 536 536 _________O____ -1 -26.2000 55.6000 TC 9 162
1881011S15057 1881 2 SI MM NOT_NAMED 1881-01-16 21:00:00 TS -26.6125 55.7524 main 581 581 _________P____ -1 -26.6125 55.7524 TC 8 161
1881011S15057 1881 2 SI MM NOT_NAMED 1881-01-17 00:00:00 TS -27.0000 55.9000 main 626 _________O____ -1 -27.0000 55.9000 TC 8 161

IBTrACS Databaseについて

本データベースは、米国NOAAが公開する1842年以降の世界の熱帯低気圧のベストトラックデータアーカイブInternational Best Track Archive for Climate Stewardship (IBTrACS)を、ウェブで閲覧しやすい形式に変換したものです。

最終更新日:2021-10-27